Time;durP1;ratioP1;P1;durP2;ratioP2;P2;SDS_P1;SDS_P2;PMS_P1;PMS_P2;Temp;Humidity;BMP_temperature;BMP_pressure;BME280_temperature;BME280_humidity;BME280_pressure;Samples;Min_cycle;Max_cycle;Signal;HPM_P1;HPM_P2
2024/02/11 00:01:08;;;;;;;;;;;;;;;7.78;100.00;93756.66;5087530;28;19990;-71
2024/02/11 00:03:37;;;;;;;;;;;;;;;7.79;100.00;93755.59;5105081;28;19948;-71
2024/02/11 00:06:04;;;;;;;;;;;;;;;7.81;100.00;93769.16;5104858;28;19952;-71
2024/02/11 00:08:30;;;;;;;;;;;;;;;7.82;100.00;93763.69;5104804;28;19952;-68
2024/02/11 00:10:56;;;;;;;;;;;;;;;7.83;100.00;93759.25;5104751;28;20252;-73
2024/02/11 00:13:22;;;;;;;;;;;;;;;7.85;100.00;93762.38;5104740;28;19970;-73
2024/02/11 00:15:48;;;;;;;;;;;;;;;7.86;100.00;93763.94;5104664;28;19945;-73
2024/02/11 00:18:14;;;;;;;;;;;;;;;7.88;100.00;93769.69;5104644;28;19941;-76
2024/02/11 00:20:41;;;;;;;;;;;;;;;7.89;100.00;93768.63;5104887;28;19934;-74
2024/02/11 00:23:07;;;;;;;;;;;;;;;7.89;100.00;93768.63;5104614;28;19935;-73
2024/02/11 00:25:33;;;;;;;;;;;;;;;7.89;100.00;93769.38;5104484;28;19941;-74
2024/02/11 00:28:00;;;;;;;;;;;;;;;7.89;100.00;93769.38;5104150;28;19943;-71
2024/02/11 00:30:26;;;;;;;;;;;;;;;7.89;100.00;93766.78;5104932;28;19953;-72
2024/02/11 00:32:56;;;;;;;;;;;;;;;7.89;100.00;93777.22;5104929;28;19939;-72
2024/02/11 00:35:28;;;;;;;;;;;;;;;7.91;100.00;93774.34;5104397;28;19942;-72
2024/02/11 00:37:54;;;;;;;;;;;;;;;7.90;100.00;93778.78;5104388;28;19942;-72
2024/02/11 00:40:20;;;;;;;;;;;;;;;7.91;100.00;93782.19;5104300;28;20137;-73
2024/02/11 00:42:46;;;;;;;;;;;;;;;7.91;100.00;93771.75;5104352;28;19940;-72
2024/02/11 00:45:13;;;;;;;;;;;;;;;7.91;100.00;93777.72;5104275;28;20243;-73
2024/02/11 00:47:41;;;;;;;;;;;;;;;7.93;100.00;93782.69;5104799;28;19939;-65
2024/02/11 00:50:07;;;;;;;;;;;;;;;7.93;100.00;93791.28;5104689;28;19957;-65
2024/02/11 00:52:33;;;;;;;;;;;;;;;7.93;100.00;93787.91;5104147;28;19946;-65
2024/02/11 00:54:59;;;;;;;;;;;;;;;7.93;100.00;93788.69;5104136;28;19937;-65
2024/02/11 00:57:25;;;;;;;;;;;;;;;7.93;100.00;93786.06;5103902;28;19962;-66
2024/02/11 00:59:51;;;;;;;;;;;;;;;7.95;100.00;93798.09;5104667;28;20039;-65
2024/02/11 01:02:17;;;;;;;;;;;;;;;7.95;100.00;93800.69;5104603;28;19934;-66
2024/02/11 01:04:43;;;;;;;;;;;;;;;7.96;100.00;93800.44;5104095;28;20223;-81
2024/02/11 01:07:08;;;;;;;;;;;;;;;7.95;100.00;93804.06;5104031;28;19934;-74
2024/02/11 01:09:34;;;;;;;;;;;;;;;7.95;100.00;93806.69;5103879;28;19956;-74
2024/02/11 01:12:00;;;;;;;;;;;;;;;7.96;100.00;93807.47;5104001;28;19942;-74
2024/02/11 01:14:26;;;;;;;;;;;;;;;7.96;100.00;93802.25;5103936;28;19992;-74
2024/02/11 01:16:53;;;;;;;;;;;;;;;7.96;100.00;93816.09;5103974;28;19969;-74
2024/02/11 01:19:19;;;;;;;;;;;;;;;7.96;100.00;93816.09;5103920;28;19936;-74
2024/02/11 01:21:44;;;;;;;;;;;;;;;7.96;100.00;93810.06;5103909;28;19938;-70
2024/02/11 01:24:14;;;;;;;;;;;;;;;7.97;100.00;93824.69;5104708;28;19954;-73
2024/02/11 01:26:40;;;;;;;;;;;;;;;7.96;100.00;93817.91;5103835;28;19939;-74
2024/02/11 01:29:06;;;;;;;;;;;;;;;7.95;100.00;93818.97;5103875;28;20003;-73
2024/02/11 01:31:31;;;;;;;;;;;;;;;7.93;100.00;93812.16;5103742;28;19990;-73
2024/02/11 01:33:57;;;;;;;;;;;;;;;7.95;100.00;93818.97;5103775;28;20284;-73
2024/02/11 01:36:23;;;;;;;;;;;;;;;7.93;100.00;93817.38;5103775;28;19936;-73
2024/02/11 01:38:49;;;;;;;;;;;;;;;7.93;100.00;93820.00;5105980;28;19935;-73
2024/02/11 01:41:15;;;;;;;;;;;;;;;7.94;100.00;93826.00;5108546;28;19945;-70
2024/02/11 01:43:41;;;;;;;;;;;;;;;7.91;100.00;93824.69;5107665;28;19995;-81
2024/02/11 01:46:07;;;;;;;;;;;;;;;7.92;100.00;93831.50;5107622;28;19936;-81
2024/02/11 01:48:33;;;;;;;;;;;;;;;7.91;100.00;93834.34;5108311;28;20102;-81
2024/02/11 01:50:59;;;;;;;;;;;;;;;7.88;100.00;93838.28;5107406;28;19953;-80
2024/02/11 01:53:26;;;;;;;;;;;;;;;7.86;100.00;93835.16;5107958;28;19933;-81
2024/02/11 01:55:53;;;;;;;;;;;;;;;7.85;100.00;93845.84;5107383;28;19947;-81
2024/02/11 01:58:19;;;;;;;;;;;;;;;7.85;100.00;93848.47;5107256;28;19971;-68
2024/02/11 02:00:47;;;;;;;;;;;;;;;7.86;100.00;93848.19;5107351;28;20235;-70
2024/02/11 02:03:13;;;;;;;;;;;;;;;7.87;100.00;93851.59;5107235;28;19944;-73
2024/02/11 02:05:39;;;;;;;;;;;;;;;7.86;100.00;93853.41;5107719;28;19936;-74
2024/02/11 02:08:08;;;;;;;;;;;;;;;7.81;100.00;93852.63;5107106;28;19958;-74
2024/02/11 02:10:35;;;;;;;;;;;;;;;7.74;100.00;93858.13;5089031;28;19962;-74
2024/02/11 02:13:01;;;;;;;;;;;;;;;7.65;100.00;93873.53;5107618;28;20101;-74
2024/02/11 02:15:26;;;;;;;;;;;;;;;7.57;100.00;93858.41;5107852;28;19937;-74
2024/02/11 02:17:52;;;;;;;;;;;;;;;7.49;100.00;93867.53;5106973;28;20112;-74
2024/02/11 02:20:18;;;;;;;;;;;;;;;7.38;100.00;93867.81;5106912;28;20058;-74
2024/02/11 02:22:44;;;;;;;;;;;;;;;7.26;100.00;93871.44;5107423;28;19932;-74
2024/02/11 02:25:10;;;;;;;;;;;;;;;7.16;100.00;93876.69;5106842;28;20144;-73
2024/02/11 02:27:37;;;;;;;;;;;;;;;7.03;100.00;93877.94;5106790;28;19935;-73
2024/02/11 02:30:04;;;;;;;;;;;;;;;6.96;100.00;93882.63;5106644;28;19964;-74
2024/02/11 02:32:30;;;;;;;;;;;;;;;6.87;100.00;93884.19;5106647;28;20135;-73
2024/02/11 02:34:56;;;;;;;;;;;;;;;6.80;100.00;93881.03;5106617;28;19943;-68
2024/02/11 02:37:22;;;;;;;;;;;;;;;6.74;100.00;93890.66;5107401;28;20210;-71
2024/02/11 02:39:47;;;;;;;;;;;;;;;6.64;100.00;93885.41;5106545;28;20093;-72
2024/02/11 02:42:13;;;;;;;;;;;;;;;6.60;100.00;93894.78;5106463;28;19940;-71
2024/02/11 02:44:39;;;;;;;;;;;;;;;6.55;100.00;93892.16;5106452;28;19948;-71
2024/02/11 02:47:05;;;;;;;;;;;;;;;6.50;100.00;93896.28;5106381;28;19934;-71
2024/02/11 02:49:32;;;;;;;;;;;;;;;6.42;100.00;93896.00;5105910;28;19946;-71
2024/02/11 02:52:01;;;;;;;;;;;;;;;6.32;100.00;93907.16;5106348;28;19942;-71
2024/02/11 02:54:27;;;;;;;;;;;;;;;6.24;100.00;93910.25;5105555;28;19944;-65
2024/02/11 02:56:53;;;;;;;;;;;;;;;6.14;100.00;93915.41;5106268;28;19973;-68
2024/02/11 02:59:19;;;;;;;;;;;;;;;6.09;100.00;93916.94;5106090;28;19945;-69
2024/02/11 03:01:46;;;;;;;;;;;;;;;6.01;100.00;93927.03;5106116;28;19966;-69
2024/02/11 03:04:12;;;;;;;;;;;;;;;5.92;100.00;93931.88;5106109;28;19933;-69
2024/02/11 03:06:40;;;;;;;;;;;;;;;5.87;100.00;93932.63;5106524;28;19945;-69
2024/02/11 03:09:06;;;;;;;;;;;;;;;5.82;100.00;93943.00;5105867;28;20118;-69
2024/02/11 03:11:33;;;;;;;;;;;;;;;5.80;100.00;93955.47;5106599;28;19957;-79
2024/02/11 03:14:00;;;;;;;;;;;;;;;5.74;100.00;93958.28;5105925;28;19934;-79
2024/02/11 03:16:27;;;;;;;;;;;;;;;5.71;100.00;93962.13;5105771;28;19934;-71
2024/02/11 03:18:52;;;;;;;;;;;;;;;5.67;100.00;93967.06;5106447;28;20110;-71
2024/02/11 03:21:19;;;;;;;;;;;;;;;5.62;100.00;93976.63;5105733;28;19941;-72
2024/02/11 03:23:45;;;;;;;;;;;;;;;5.57;100.00;93979.97;5105720;28;19951;-71
2024/02/11 03:26:11;;;;;;;;;;;;;;;5.56;100.00;93977.63;5106450;28;19937;-71
2024/02/11 03:28:38;;;;;;;;;;;;;;;5.57;100.00;93998.19;5106097;28;19936;-71
2024/02/11 03:31:04;;;;;;;;;;;;;;;5.55;100.00;94002.84;5106037;28;19952;-74
2024/02/11 03:33:30;;;;;;;;;;;;;;;5.50;100.00;94007.97;5105560;28;19935;-73
2024/02/11 03:35:56;;;;;;;;;;;;;;;5.46;100.00;94005.09;5105516;28;19931;-73
2024/02/11 03:38:23;;;;;;;;;;;;;;;5.44;100.00;94006.38;5105420;28;19933;-73
2024/02/11 03:40:53;;;;;;;;;;;;;;;5.43;100.00;94015.19;5106190;28;20111;-73
2024/02/11 03:43:22;;;;;;;;;;;;;;;5.43;100.00;94015.19;5105842;28;19942;-73
2024/02/11 03:45:48;;;;;;;;;;;;;;;5.42;100.00;94022.22;5105288;28;19993;-74
2024/02/11 03:48:14;;;;;;;;;;;;;;;5.40;100.00;94020.91;5105231;28;19945;-72
2024/02/11 03:50:40;;;;;;;;;;;;;;;5.39;100.00;94030.47;5105149;28;19964;-69
2024/02/11 03:53:09;;;;;;;;;;;;;;;5.38;100.00;94036.72;5105148;28;19997;-68
2024/02/11 03:55:36;;;;;;;;;;;;;;;5.35;100.00;94032.00;5105073;28;19935;-68
2024/02/11 03:58:04;;;;;;;;;;;;;;;5.34;100.00;94043.44;5105035;28;19971;-69
2024/02/11 04:00:31;;;;;;;;;;;;;;;5.34;100.00;94050.44;5105525;28;19939;-68
2024/02/11 04:03:00;;;;;;;;;;;;;;;5.33;100.00;94046.28;5104531;28;20234;-67
2024/02/11 04:05:28;;;;;;;;;;;;;;;5.32;100.00;94044.72;5104878;28;19938;-68
2024/02/11 04:08:12;;;;;;;;;;;;;;;5.32;100.00;94048.09;5083480;28;19958;-74
2024/02/11 04:10:39;;;;;;;;;;;;;;;5.35;100.00;94050.19;5082918;28;19966;-68
2024/02/11 04:13:06;;;;;;;;;;;;;;;5.31;100.00;94056.91;5083500;28;19937;-68
2024/02/11 04:15:33;;;;;;;;;;;;;;;5.23;100.00;94052.16;5082728;28;19952;-69
2024/02/11 04:18:10;;;;;;;;;;;;;;;5.18;100.00;94060.66;5082140;28;19944;-69
2024/02/11 04:20:36;;;;;;;;;;;;;;;5.12;100.00;94056.44;5082907;28;19959;-69
2024/02/11 04:23:03;;;;;;;;;;;;;;;5.11;100.00;94057.47;5082610;28;19950;-68
2024/02/11 04:25:33;;;;;;;;;;;;;;;5.11;100.00;94056.69;5083100;28;19962;-68
2024/02/11 04:27:59;;;;;;;;;;;;;;;5.14;100.00;94066.59;5083098;28;19949;-73
2024/02/11 04:30:27;;;;;;;;;;;;;;;5.12;100.00;94058.25;5082494;28;19955;-72
2024/02/11 04:32:53;;;;;;;;;;;;;;;5.13;100.00;94059.84;5083235;28;19947;-72
2024/02/11 04:35:24;;;;;;;;;;;;;;;5.07;100.00;94062.34;5083236;28;19932;-72
2024/02/11 04:37:52;;;;;;;;;;;;;;;5.04;100.00;94060.25;5082418;28;19935;-72
2024/02/11 04:40:18;;;;;;;;;;;;;;;5.02;100.00;94064.91;5103616;28;20120;-72
2024/02/11 04:42:46;;;;;;;;;;;;;;;5.06;100.00;94071.19;5104357;28;19944;-72
2024/02/11 04:45:16;;;;;;;;;;;;;;;5.08;100.00;94074.34;5104857;28;19938;-70
2024/02/11 04:48:03;;;;;;;;;;;;;;;5.13;100.00;94086.59;5104242;28;19945;-73
2024/02/11 04:50:30;;;;;;;;;;;;;;;5.15;100.00;94083.75;5104993;28;20124;-73
2024/02/11 04:52:58;;;;;;;;;;;;;;;5.13;100.00;94084.00;5104201;28;20223;-74
2024/02/11 04:55:28;;;;;;;;;;;;;;;5.09;100.00;94088.09;5104181;28;19929;-74
2024/02/11 04:58:01;;;;;;;;;;;;;;;5.05;100.00;94081.81;5104174;28;19965;-73
2024/02/11 05:00:28;;;;;;;;;;;;;;;4.94;100.00;94082.72;5104688;28;20304;-74
2024/02/11 05:02:55;;;;;;;;;;;;;;;4.87;100.00;94080.28;5104104;28;20241;-68
2024/02/11 05:05:29;;;;;;;;;;;;;;;4.85;100.00;94085.72;5104061;28;19947;-66
2024/02/11 05:07:56;;;;;;;;;;;;;;;4.87;100.00;94095.84;5104011;28;19964;-66
2024/02/11 05:10:27;;;;;;;;;;;;;;;4.90;100.00;94095.38;5104728;28;20112;-65
2024/02/11 05:12:54;;;;;;;;;;;;;;;4.92;100.00;94105.53;5106118;28;19934;-65
2024/02/11 05:15:20;;;;;;;;;;;;;;;4.89;100.00;94106.78;5108712;28;19936;-66
2024/02/11 05:17:48;;;;;;;;;;;;;;;4.82;100.00;94109.56;5108331;28;20225;-66
2024/02/11 05:20:21;;;;;;;;;;;;;;;4.79;100.00;94109.28;5108105;28;19938;-65
2024/02/11 05:22:47;;;;;;;;;;;;;;;4.74;100.00;94106.59;5108917;28;20138;-66
2024/02/11 05:25:19;;;;;;;;;;;;;;;4.68;100.00;94105.72;5108002;28;20104;-73
2024/02/11 05:27:47;;;;;;;;;;;;;;;4.63;100.00;94113.44;5108580;28;19937;-74
2024/02/11 05:30:13;;;;;;;;;;;;;;;4.62;100.00;94124.84;5108393;28;20135;-74
2024/02/11 05:32:38;;;;;;;;;;;;;;;4.57;100.00;94120.38;5108671;28;19979;-74
2024/02/11 05:35:09;;;;;;;;;;;;;;;4.50;100.00;94122.34;5107850;28;19943;-74
2024/02/11 05:37:35;;;;;;;;;;;;;;;4.46;100.00;94116.84;5108271;28;20122;-74
2024/02/11 05:40:01;;;;;;;;;;;;;;;4.46;100.00;94123.84;5108561;28;20212;-65
2024/02/11 05:42:28;;;;;;;;;;;;;;;4.42;100.00;94126.13;5107694;28;19949;-69
2024/02/11 05:44:54;;;;;;;;;;;;;;;4.43;100.00;94125.13;5107671;28;20128;-69
2024/02/11 05:47:20;;;;;;;;;;;;;;;4.40;100.00;94130.75;5107580;28;19945;-70
2024/02/11 05:49:46;;;;;;;;;;;;;;;4.38;100.00;94127.63;5108040;28;19934;-70
2024/02/11 05:52:12;;;;;;;;;;;;;;;4.35;100.00;94132.50;5107419;28;19956;-69
2024/02/11 05:54:39;;;;;;;;;;;;;;;4.34;100.00;94130.91;5107466;28;19934;-69
2024/02/11 05:57:06;;;;;;;;;;;;;;;4.31;100.00;94132.19;5107224;28;19972;-69
2024/02/11 05:59:31;;;;;;;;;;;;;;;4.33;100.00;94132.75;5107894;28;19944;-73
2024/02/11 06:02:00;;;;;;;;;;;;;;;4.33;100.00;94135.31;5107300;28;20194;-70
2024/02/11 06:04:25;;;;;;;;;;;;;;;4.34;100.00;94136.88;5108065;28;19947;-71
2024/02/11 06:06:51;;;;;;;;;;;;;;;4.36;100.00;94139.25;5107749;28;19944;-70
2024/02/11 06:09:21;;;;;;;;;;;;;;;4.37;100.00;94140.84;5107138;28;19951;-70
2024/02/11 06:11:48;;;;;;;;;;;;;;;4.36;100.00;94147.81;5107033;28;19954;-70
2024/02/11 06:14:13;;;;;;;;;;;;;;;4.38;100.00;94150.19;5107079;28;19946;-70
2024/02/11 06:16:39;;;;;;;;;;;;;;;4.38;100.00;94150.19;5107016;28;19938;-73
2024/02/11 06:19:06;;;;;;;;;;;;;;;4.40;100.00;94154.13;5106988;28;19941;-80
2024/02/11 06:21:32;;;;;;;;;;;;;;;4.40;100.00;94153.34;5106883;28;19936;-79
2024/02/11 06:23:57;;;;;;;;;;;;;;;4.42;100.00;94164.25;5106076;28;20222;-79
2024/02/11 06:26:23;;;;;;;;;;;;;;;4.45;100.00;94166.38;5106837;28;20151;-80
2024/02/11 06:28:49;;;;;;;;;;;;;;;4.48;100.00;94164.09;5106797;28;19941;-80
2024/02/11 06:31:15;;;;;;;;;;;;;;;4.52;100.00;94177.41;5107220;28;19951;-80
2024/02/11 06:33:41;;;;;;;;;;;;;;;4.53;100.00;94178.97;5107488;28;19936;-79
2024/02/11 06:36:07;;;;;;;;;;;;;;;4.52;100.00;94187.78;5088581;28;19939;-68
2024/02/11 06:38:34;;;;;;;;;;;;;;;4.55;100.00;94194.31;5107097;28;19939;-70
2024/02/11 06:41:00;;;;;;;;;;;;;;;4.56;100.00;94194.06;5106556;28;20221;-70
2024/02/11 06:43:29;;;;;;;;;;;;;;;4.56;100.00;94196.69;5107007;28;19984;-71
2024/02/11 06:45:55;;;;;;;;;;;;;;;4.53;100.00;94197.13;5107240;28;20205;-70
2024/02/11 06:48:23;;;;;;;;;;;;;;;4.53;100.00;94204.13;5106381;28;19937;-71
2024/02/11 06:50:49;;;;;;;;;;;;;;;4.51;100.00;94206.97;5106837;28;19952;-71
2024/02/11 06:53:14;;;;;;;;;;;;;;;4.46;100.00;94207.66;5106353;28;20031;-68
2024/02/11 06:55:40;;;;;;;;;;;;;;;4.47;100.00;94208.44;5106308;28;19939;-70
2024/02/11 06:58:07;;;;;;;;;;;;;;;4.47;100.00;94211.03;5106120;28;19960;-70
2024/02/11 07:00:33;;;;;;;;;;;;;;;4.50;100.00;94215.78;5106970;28;20240;-70
2024/02/11 07:03:02;;;;;;;;;;;;;;;4.56;100.00;94221.84;5106166;28;19949;-70
2024/02/11 07:05:30;;;;;;;;;;;;;;;4.60;100.00;94223.72;5106081;28;19940;-71
2024/02/11 07:07:59;;;;;;;;;;;;;;;4.56;100.00;94216.66;5106024;28;20255;-70
2024/02/11 07:10:25;;;;;;;;;;;;;;;4.53;100.00;94217.88;5105892;28;20248;-71
2024/02/11 07:12:52;;;;;;;;;;;;;;;4.53;100.00;94222.31;5105993;28;19981;-65
2024/02/11 07:15:19;;;;;;;;;;;;;;;4.56;100.00;94221.84;5105957;28;19935;-71
2024/02/11 07:17:45;;;;;;;;;;;;;;;4.54;100.00;94222.06;5106129;28;19939;-71
2024/02/11 07:20:14;;;;;;;;;;;;;;;4.56;100.00;94229.63;5105873;28;19983;-71
2024/02/11 07:22:42;;;;;;;;;;;;;;;4.55;100.00;94236.63;5105738;28;19937;-72
2024/02/11 07:25:08;;;;;;;;;;;;;;;4.55;100.00;94241.03;5105697;28;19943;-71
2024/02/11 07:27:34;;;;;;;;;;;;;;;4.57;100.00;94249.38;5105653;28;20130;-71
2024/02/11 07:30:00;;;;;;;;;;;;;;;4.60;100.00;94254.06;5105671;28;20144;-67
2024/02/11 07:32:26;;;;;;;;;;;;;;;4.61;100.00;94253.06;5106019;28;19952;-70
2024/02/11 07:34:56;;;;;;;;;;;;;;;4.63;100.00;94254.41;5106399;28;20160;-73
2024/02/11 07:37:22;;;;;;;;;;;;;;;4.64;100.00;94255.19;5105177;28;19941;-74
2024/02/11 07:39:51;;;;;;;;;;;;;;;4.64;100.00;94253.41;5105466;28;19934;-73
2024/02/11 07:42:17;;;;;;;;;;;;;;;4.67;100.00;94247.72;5105544;28;19931;-73
2024/02/11 07:44:43;;;;;;;;;;;;;;;4.67;100.00;94255.50;5105273;28;19938;-73
2024/02/11 07:47:10;;;;;;;;;;;;;;;4.68;100.00;94259.69;5105322;28;19933;-73
2024/02/11 07:49:38;;;;;;;;;;;;;;;4.69;100.00;94260.47;5105268;28;19942;-74
2024/02/11 07:52:06;;;;;;;;;;;;;;;4.71;100.00;94258.44;5105145;28;20154;-73
2024/02/11 07:54:33;;;;;;;;;;;;;;;4.75;100.00;94263.94;5105696;28;19940;-74
2024/02/11 07:56:59;;;;;;;;;;;;;;;4.77;100.00;94267.88;5104963;28;20278;-73
2024/02/11 07:59:25;;;;;;;;;;;;;;;4.79;100.00;94257.25;5105072;28;19946;-74
2024/02/11 08:01:51;;;;;;;;;;;;;;;4.81;100.00;94270.81;5105867;28;19943;-74
2024/02/11 08:04:18;;;;;;;;;;;;;;;4.81;100.00;94266.38;5105516;28;20147;-73
2024/02/11 08:06:45;;;;;;;;;;;;;;;4.85;100.00;94272.69;5086781;28;19943;-67
2024/02/11 08:09:12;;;;;;;;;;;;;;;4.86;100.00;94273.47;5105666;28;19955;-73
2024/02/11 08:11:38;;;;;;;;;;;;;;;4.87;100.00;94275.03;5104781;28;19947;-79
2024/02/11 08:14:04;;;;;;;;;;;;;;;4.92;100.00;94282.91;5104852;28;19935;-78
2024/02/11 08:16:30;;;;;;;;;;;;;;;4.97;100.00;94282.97;5104795;28;20242;-79
2024/02/11 08:18:56;;;;;;;;;;;;;;;5.02;100.00;94288.28;5086826;28;19935;-78
2024/02/11 08:21:22;;;;;;;;;;;;;;;5.09;100.00;94288.13;5105507;28;19939;-80
2024/02/11 08:23:48;;;;;;;;;;;;;;;5.16;100.00;94293.16;5104655;28;20194;-79
2024/02/11 08:26:14;;;;;;;;;;;;;;;5.19;100.00;94284.91;5104668;28;19939;-73
2024/02/11 08:28:39;;;;;;;;;;;;;;;5.20;100.00;94287.22;5104568;28;19941;-79
2024/02/11 08:31:05;;;;;;;;;;;;;;;5.29;100.00;94291.03;5104554;28;20138;-78
2024/02/11 08:33:32;;;;;;;;;;;;;;;5.43;100.00;94290.69;5105271;28;20207;-79
2024/02/11 08:35:58;;;;;;;;;;;;;;;5.56;100.00;94290.34;5104996;28;19933;-79
2024/02/11 08:38:24;;;;;;;;;;;;;;;5.62;100.00;94297.19;5104440;28;20253;-79
2024/02/11 08:40:51;;;;;;;;;;;;;;;5.62;100.00;94304.22;5104410;28;19932;-79
2024/02/11 08:43:19;;;;;;;;;;;;;;;5.60;100.00;94307.03;5104879;28;19936;-73
2024/02/11 08:45:45;;;;;;;;;;;;;;;5.60;100.00;94308.84;5104404;28;19939;-74
2024/02/11 08:48:11;;;;;;;;;;;;;;;5.60;100.00;94308.84;5103922;28;19993;-72
2024/02/11 08:50:38;;;;;;;;;;;;;;;5.60;100.00;94320.03;5105052;28;19936;-72
2024/02/11 08:53:05;;;;;;;;;;;;;;;5.57;100.00;94320.53;5104226;28;19939;-71
2024/02/11 08:55:31;;;;;;;;;;;;;;;5.59;100.00;94326.28;5104449;28;19946;-72
2024/02/11 08:57:59;;;;;;;;;;;;;;;5.59;100.00;94328.09;5104034;28;19960;-72
2024/02/11 09:00:26;;;;;;;;;;;;;;;5.62;100.00;94331.00;5104406;28;19951;-72
2024/02/11 09:02:52;;;;;;;;;;;;;;;5.64;100.00;94331.53;5104965;28;20125;-73
2024/02/11 09:05:20;;;;;;;;;;;;;;;5.66;100.00;94324.28;5104165;28;19941;-78
2024/02/11 09:07:46;;;;;;;;;;;;;;;5.70;100.00;94319.41;5104750;28;19999;-79
2024/02/11 09:10:14;;;;;;;;;;;;;;;5.72;100.00;94321.78;5104116;28;19942;-79
2024/02/11 09:12:43;;;;;;;;;;;;;;;5.77;100.00;94325.22;5103932;28;19958;-79
2024/02/11 09:15:09;;;;;;;;;;;;;;;5.78;100.00;94334.59;5104309;28;19942;-78
2024/02/11 09:17:40;;;;;;;;;;;;;;;5.80;100.00;94334.38;5104016;28;20115;-79
2024/02/11 09:20:07;;;;;;;;;;;;;;;5.82;100.00;94335.69;5104603;28;20121;-65
2024/02/11 09:22:33;;;;;;;;;;;;;;;5.85;100.00;94331.81;5104060;28;19954;-71
2024/02/11 09:24:59;;;;;;;;;;;;;;;5.90;100.00;94337.09;5103908;28;19938;-66
2024/02/11 09:27:25;;;;;;;;;;;;;;;5.93;100.00;94339.22;5103893;28;19935;-66
2024/02/11 09:29:51;;;;;;;;;;;;;;;5.95;100.00;94339.00;5104193;28;19947;-65
2024/02/11 09:32:17;;;;;;;;;;;;;;;5.96;100.00;94338.75;5103778;28;19957;-65
2024/02/11 09:34:43;;;;;;;;;;;;;;;5.98;100.00;94338.53;5103823;28;19942;-65
2024/02/11 09:37:09;;;;;;;;;;;;;;;6.01;100.00;94341.44;5103773;28;20011;-65
2024/02/11 09:39:34;;;;;;;;;;;;;;;6.03;100.00;94339.38;5104319;28;20214;-71
2024/02/11 09:42:00;;;;;;;;;;;;;;;6.09;100.00;94338.41;5104612;28;20178;-70
2024/02/11 09:44:28;;;;;;;;;;;;;;;6.14;100.00;94332.47;5085709;28;20020;-70
2024/02/11 09:46:54;;;;;;;;;;;;;;;6.21;100.00;94340.88;5104318;28;19938;-70
2024/02/11 09:49:21;;;;;;;;;;;;;;;6.24;100.00;94343.03;5103706;28;19942;-70
2024/02/11 09:51:48;;;;;;;;;;;;;;;6.29;100.00;94343.06;5086222;28;19963;-71
2024/02/11 09:54:15;;;;;;;;;;;;;;;6.33;100.00;94347.81;5103647;28;19938;-70
2024/02/11 09:56:42;;;;;;;;;;;;;;;6.35;100.00;94346.53;5103435;28;19968;-68
2024/02/11 09:59:09;;;;;;;;;;;;;;;6.36;100.00;94357.72;5103937;28;20222;-70
2024/02/11 10:01:38;;;;;;;;;;;;;;;6.34;100.00;94351.97;5107341;28;19928;-74
2024/02/11 10:04:05;;;;;;;;;;;;;;;6.36;100.00;94355.91;5107872;28;19944;-74
2024/02/11 10:06:37;;;;;;;;;;;;;;;6.37;100.00;94352.28;5107802;28;19931;-74
2024/02/11 10:09:04;;;;;;;;;;;;;;;6.36;100.00;94358.50;5107366;28;19975;-73
2024/02/11 10:11:32;;;;;;;;;;;;;;;6.38;100.00;94376.50;5107059;28;19954;-74
2024/02/11 10:13:59;;;;;;;;;;;;;;;6.42;100.00;94375.75;5107939;28;19935;-73
2024/02/11 10:16:28;;;;;;;;;;;;;;;6.48;100.00;94374.00;5107647;28;19931;-71
2024/02/11 10:18:54;;;;;;;;;;;;;;;6.58;100.00;94379.34;5107079;28;20105;-70
2024/02/11 10:21:20;;;;;;;;;;;;;;;6.70;100.00;94376.63;5107016;28;19935;-70
2024/02/11 10:23:46;;;;;;;;;;;;;;;6.81;100.00;94385.31;5088987;28;19986;-70
2024/02/11 10:26:12;;;;;;;;;;;;;;;6.94;100.00;94379.72;5106530;28;19932;-70
2024/02/11 10:28:48;;;;;;;;;;;;;;;7.11;100.00;94393.44;5106758;28;19943;-70
2024/02/11 10:31:14;;;;;;;;;;;;;;;7.20;100.00;94383.38;5107547;28;19934;-70
2024/02/11 10:33:41;;;;;;;;;;;;;;;7.20;100.00;94383.38;5106735;28;20257;-66
2024/02/11 10:36:07;;;;;;;;;;;;;;;7.20;100.00;94387.78;5107014;28;20145;-67
2024/02/11 10:38:33;;;;;;;;;;;;;;;7.11;100.00;94390.81;5106659;28;19943;-71
2024/02/11 10:41:01;;;;;;;;;;;;;;;7.02;100.00;94399.34;5106680;28;20101;-71
2024/02/11 10:43:27;;;;;;;;;;;;;;;6.96;100.00;94408.13;5106540;28;20231;-71
2024/02/11 10:45:53;;;;;;;;;;;;;;;6.92;100.00;94397.41;5106570;28;19940;-71
2024/02/11 10:48:21;;;;;;;;;;;;;;;6.94;100.00;94412.81;5107337;28;19939;-71
2024/02/11 10:51:00;;;;;;;;;;;;;;;6.93;100.00;94411.22;5106441;28;19946;-71
2024/02/11 10:53:27;;;;;;;;;;;;;;;6.91;100.00;94406.28;5106326;28;19953;-74
2024/02/11 10:55:55;;;;;;;;;;;;;;;6.90;100.00;94412.50;5106335;28;19946;-73
2024/02/11 10:58:24;;;;;;;;;;;;;;;6.88;100.00;94410.13;5106217;28;19967;-73
2024/02/11 11:00:51;;;;;;;;;;;;;;;6.90;100.00;94408.06;5106306;28;19940;-73
2024/02/11 11:03:21;;;;;;;;;;;;;;;6.94;100.00;94418.03;5106174;28;19942;-73
2024/02/11 11:05:47;;;;;;;;;;;;;;;6.97;100.00;94417.50;5106657;28;19931;-73
2024/02/11 11:08:14;;;;;;;;;;;;;;;6.94;100.00;94405.00;5106067;28;19955;-73
2024/02/11 11:10:40;;;;;;;;;;;;;;;6.95;100.00;94420.38;5105772;28;19934;-66
2024/02/11 11:13:08;;;;;;;;;;;;;;;6.98;100.00;94414.66;5105972;28;20057;-65
2024/02/11 11:15:34;;;;;;;;;;;;;;;7.01;100.00;94419.38;5105963;28;19944;-79
2024/02/11 11:18:00;;;;;;;;;;;;;;;7.07;100.00;94421.00;5105926;28;20230;-79
2024/02/11 11:20:33;;;;;;;;;;;;;;;7.11;100.00;94411.66;5105817;28;19942;-79
2024/02/11 11:22:59;;;;;;;;;;;;;;;7.16;100.00;94416.16;5105865;28;19934;-79
2024/02/11 11:25:27;;;;;;;;;;;;;;;7.22;100.00;94419.59;5105806;28;20247;-79
2024/02/11 11:27:53;;;;;;;;;;;;;;;7.25;100.00;94408.69;5105676;28;20218;-77
2024/02/11 11:30:19;;;;;;;;;;;;;;;7.32;100.00;94398.84;5105517;28;20230;-74
2024/02/11 11:32:46;;;;;;;;;;;;;;;7.57;100.00;94406.09;5106319;28;19956;-69
2024/02/11 11:35:13;;;;;;;;;;;;;;;7.81;100.00;94387.47;5105523;28;20232;-69
2024/02/11 11:37:39;;;;;;;;;;;;;;;8.00;100.00;94406.13;5105368;28;19949;-71
2024/02/11 11:40:07;;;;;;;;;;;;;;;8.22;100.00;94383.28;5106136;28;19934;-69
2024/02/11 11:42:36;;;;;;;;;;;;;;;8.39;100.00;94387.53;5106223;28;19935;-69
2024/02/11 11:45:06;;;;;;;;;;;;;;;8.60;100.00;94375.38;5105339;28;19939;-69
2024/02/11 11:47:33;;;;;;;;;;;;;;;8.70;100.00;94380.66;5105464;28;20147;-70
2024/02/11 11:49:59;;;;;;;;;;;;;;;8.82;100.00;94377.78;5105440;28;19945;-70
2024/02/11 11:52:26;;;;;;;;;;;;;;;9.06;100.00;94368.44;5105908;28;19949;-70
2024/02/11 11:54:51;;;;;;;;;;;;;;;9.50;100.00;94383.66;5105420;28;19946;-70
2024/02/11 11:57:18;;;;;;;;;;;;;;;9.92;100.00;94359.03;5104933;28;19969;-70
2024/02/11 11:59:54;;;;;;;;;;;;;;;10.28;100.00;94364.19;5105067;28;19952;-70
2024/02/11 12:02:20;;;;;;;;;;;;;;;10.46;100.00;94320.16;5105096;28;19952;-69
2024/02/11 12:04:46;;;;;;;;;;;;;;;10.45;100.00;94310.72;5104962;28;19939;-70
2024/02/11 12:07:12;;;;;;;;;;;;;;;10.56;100.00;94313.03;5104999;28;20250;-69
2024/02/11 12:09:37;;;;;;;;;;;;;;;10.60;100.00;94294.91;5104852;28;19956;-70
2024/02/11 12:12:04;;;;;;;;;;;;;;;10.60;100.00;94321.09;5105608;28;20289;-70
2024/02/11 12:14:31;;;;;;;;;;;;;;;10.51;100.00;94301.78;5104815;28;20112;-71
2024/02/11 12:16:57;;;;;;;;;;;;;;;10.34;100.00;94347.41;5087060;28;20232;-74
2024/02/11 12:19:23;;;;;;;;;;;;;;;10.28;100.00;94331.97;5104754;28;19973;-70
2024/02/11 12:21:49;;;;;;;;;;;;;;;10.16;100.00;94322.59;5104206;28;19932;-71
2024/02/11 12:24:15;;;;;;;;;;;;;;;10.06;100.00;94345.41;5104571;28;19943;-69
2024/02/11 12:26:41;;;;;;;;;;;;;;;9.93;100.00;94312.69;5104551;28;19936;-70
2024/02/11 12:29:07;;;;;;;;;;;;;;;9.87;100.00;94321.59;5105059;28;20149;-69
2024/02/11 12:31:33;;;;;;;;;;;;;;;9.86;100.00;94325.28;5086304;28;20004;-69
2024/02/11 12:34:01;;;;;;;;;;;;;;;10.00;100.00;94349.09;5104478;28;19976;-69
2024/02/11 12:36:27;;;;;;;;;;;;;;;10.13;100.00;94353.75;5104418;28;19939;-69
2024/02/11 12:38:56;;;;;;;;;;;;;;;10.28;100.00;94326.72;5104365;28;20193;-68
2024/02/11 12:41:23;;;;;;;;;;;;;;;10.53;100.00;94338.97;5104933;28;19934;-68
2024/02/11 12:43:51;;;;;;;;;;;;;;;10.63;100.00;94317.97;5105088;28;19944;-81